sensor_id;sensor_type;location;lat;lon;timestamp;pressure;altitude;pressure_sealevel;temperature;humidity
70133;BME280;57495;49.922;7.966;2023-07-13T00:00:05;99895.03;;;18.90;59.19
70133;BME280;57495;49.922;7.966;2023-07-13T00:02:09;99887.06;;;18.82;60.72
70133;BME280;57495;49.922;7.966;2023-07-13T00:04:11;99891.25;;;18.56;59.41
70133;BME280;57495;49.922;7.966;2023-07-13T00:06:13;99889.78;;;18.82;59.47
70133;BME280;57495;49.922;7.966;2023-07-13T00:08:15;99886.28;;;18.88;59.87
70133;BME280;57495;49.922;7.966;2023-07-13T00:10:17;99878.94;;;18.82;60.75
70133;BME280;57495;49.922;7.966;2023-07-13T00:12:24;99877.34;;;18.94;59.35
70133;BME280;57495;49.922;7.966;2023-07-13T00:14:27;99878.78;;;18.90;59.83
70133;BME280;57495;49.922;7.966;2023-07-13T00:16:29;99876.47;;;18.87;59.43
70133;BME280;57495;49.922;7.966;2023-07-13T00:18:31;99876.47;;;18.87;59.70
70133;BME280;57495;49.922;7.966;2023-07-13T00:20:32;99877.09;;;18.82;59.40
70133;BME280;57495;49.922;7.966;2023-07-13T00:22:33;99881.94;;;18.65;61.16
70133;BME280;57495;49.922;7.966;2023-07-13T00:24:36;99884.06;;;18.77;60.19
70133;BME280;57495;49.922;7.966;2023-07-13T00:26:41;99877.13;;;18.67;60.53
70133;BME280;57495;49.922;7.966;2023-07-13T00:28:44;99877.63;;;18.78;59.63
70133;BME280;57495;49.922;7.966;2023-07-13T00:30:45;99880.34;;;18.78;60.12
70133;BME280;57495;49.922;7.966;2023-07-13T00:32:47;99879.78;;;18.82;59.74
70133;BME280;57495;49.922;7.966;2023-07-13T00:34:48;99880.97;;;18.73;60.18
70133;BME280;57495;49.922;7.966;2023-07-13T00:36:48;99888.22;;;18.72;60.09
70133;BME280;57495;49.922;7.966;2023-07-13T00:38:50;99890.31;;;18.70;60.11
70133;BME280;57495;49.922;7.966;2023-07-13T00:40:52;99892.53;;;18.60;60.76
70133;BME280;57495;49.922;7.966;2023-07-13T00:42:57;99908.75;;;18.53;61.15
70133;BME280;57495;49.922;7.966;2023-07-13T00:45:07;99904.06;;;18.41;61.36
70133;BME280;57495;49.922;7.966;2023-07-13T00:47:28;99902.41;;;18.40;59.95
70133;BME280;57495;49.922;7.966;2023-07-13T00:49:31;99902.00;;;18.43;60.32
70133;BME280;57495;49.922;7.966;2023-07-13T00:51:36;99915.06;;;18.32;60.65
70133;BME280;57495;49.922;7.966;2023-07-13T00:53:40;99919.81;;;18.30;63.01
70133;BME280;57495;49.922;7.966;2023-07-13T00:55:40;99924.44;;;18.37;63.39
70133;BME280;57495;49.922;7.966;2023-07-13T00:57:44;99920.50;;;18.39;62.90
70133;BME280;57495;49.922;7.966;2023-07-13T00:59:47;99919.97;;;18.50;61.21
70133;BME280;57495;49.922;7.966;2023-07-13T01:01:50;99924.53;;;18.50;64.06
70133;BME280;57495;49.922;7.966;2023-07-13T01:03:51;99918.88;;;18.45;64.62
70133;BME280;57495;49.922;7.966;2023-07-13T01:05:54;99923.56;;;18.58;62.79
70133;BME280;57495;49.922;7.966;2023-07-13T01:07:55;99922.47;;;18.52;62.17
70133;BME280;57495;49.922;7.966;2023-07-13T01:09:57;99920.16;;;18.49;60.99
70133;BME280;57495;49.922;7.966;2023-07-13T01:11:58;99929.13;;;18.49;61.41
70133;BME280;57495;49.922;7.966;2023-07-13T01:14:01;99923.09;;;18.54;61.33
70133;BME280;57495;49.922;7.966;2023-07-13T01:16:11;99922.38;;;18.67;61.25
70133;BME280;57495;49.922;7.966;2023-07-13T01:18:16;99931.31;;;18.67;61.55
70133;BME280;57495;49.922;7.966;2023-07-13T01:20:18;99912.38;;;18.67;61.47
70133;BME280;57495;49.922;7.966;2023-07-13T01:22:21;99915.72;;;18.69;61.85
70133;BME280;57495;49.922;7.966;2023-07-13T01:24:26;99922.34;;;18.60;62.14
70133;BME280;57495;49.922;7.966;2023-07-13T01:26:28;99911.94;;;18.35;64.11
70133;BME280;57495;49.922;7.966;2023-07-13T01:28:29;99917.31;;;18.29;64.96
70133;BME280;57495;49.922;7.966;2023-07-13T01:30:31;99921.88;;;18.28;65.23
70133;BME280;57495;49.922;7.966;2023-07-13T01:32:32;99923.56;;;18.29;64.06
70133;BME280;57495;49.922;7.966;2023-07-13T01:34:34;99921.19;;;17.98;62.27
70133;BME280;57495;49.922;7.966;2023-07-13T01:36:35;99916.38;;;17.93;62.64
70133;BME280;57495;49.922;7.966;2023-07-13T01:38:38;99917.50;;;17.84;63.07
70133;BME280;57495;49.922;7.966;2023-07-13T01:40:38;99923.66;;;17.78;62.95
70133;BME280;57495;49.922;7.966;2023-07-13T01:42:40;99920.13;;;17.77;63.50
70133;BME280;57495;49.922;7.966;2023-07-13T01:44:41;99919.47;;;17.90;63.68
70133;BME280;57495;49.922;7.966;2023-07-13T01:46:43;99914.69;;;17.92;63.52
70133;BME280;57495;49.922;7.966;2023-07-13T01:48:44;99920.75;;;17.94;63.75
70133;BME280;57495;49.922;7.966;2023-07-13T01:50:47;99923.72;;;18.00;63.48
70133;BME280;57495;49.922;7.966;2023-07-13T01:52:48;99915.94;;;17.75;63.88
70133;BME280;57495;49.922;7.966;2023-07-13T01:54:51;99923.53;;;17.65;65.04
70133;BME280;57495;49.922;7.966;2023-07-13T01:56:52;99914.00;;;17.69;64.77
70133;BME280;57495;49.922;7.966;2023-07-13T01:58:54;99922.75;;;17.71;64.69
70133;BME280;57495;49.922;7.966;2023-07-13T02:00:55;99929.25;;;17.55;64.97
70133;BME280;57495;49.922;7.966;2023-07-13T02:02:57;99923.53;;;17.65;64.72
70133;BME280;57495;49.922;7.966;2023-07-13T02:04:58;99930.81;;;17.64;64.72
70133;BME280;57495;49.922;7.966;2023-07-13T02:06:59;99934.06;;;17.59;64.66
70133;BME280;57495;49.922;7.966;2023-07-13T02:09:01;99937.06;;;17.65;64.48
70133;BME280;57495;49.922;7.966;2023-07-13T02:11:03;99930.81;;;17.64;64.18
70133;BME280;57495;49.922;7.966;2023-07-13T02:13:06;99937.88;;;17.65;64.57
70133;BME280;57495;49.922;7.966;2023-07-13T02:15:09;99931.28;;;17.68;64.77
70133;BME280;57495;49.922;7.966;2023-07-13T02:17:11;99934.72;;;17.62;64.74
70133;BME280;57495;49.922;7.966;2023-07-13T02:19:12;99936.56;;;17.25;65.92
70133;BME280;57495;49.922;7.966;2023-07-13T02:21:13;99940.97;;;17.11;66.96
70133;BME280;57495;49.922;7.966;2023-07-13T02:23:15;99941.22;;;17.31;67.80
70133;BME280;57495;49.922;7.966;2023-07-13T02:25:16;99934.13;;;17.30;67.15
70133;BME280;57495;49.922;7.966;2023-07-13T02:27:18;99931.53;;;17.36;66.93
70133;BME280;57495;49.922;7.966;2023-07-13T02:29:20;99936.56;;;17.25;66.83
70133;BME280;57495;49.922;7.966;2023-07-13T02:31:22;99933.22;;;17.23;67.69
70133;BME280;57495;49.922;7.966;2023-07-13T02:33:23;99931.63;;;17.28;67.04
70133;BME280;57495;49.922;7.966;2023-07-13T02:35:24;99935.63;;;17.17;67.73
70133;BME280;57495;49.922;7.966;2023-07-13T02:37:26;99940.03;;;17.04;67.68
70133;BME280;57495;49.922;7.966;2023-07-13T02:39:27;99942.25;;;17.15;68.33
70133;BME280;57495;49.922;7.966;2023-07-13T02:41:28;99941.72;;;17.05;68.41
70133;BME280;57495;49.922;7.966;2023-07-13T02:43:31;99942.56;;;17.05;68.54
70133;BME280;57495;49.922;7.966;2023-07-13T02:45:32;99942.47;;;16.98;68.58
70133;BME280;57495;49.922;7.966;2023-07-13T02:47:35;99947.59;;;17.08;68.81
70133;BME280;57495;49.922;7.966;2023-07-13T02:49:36;99950.72;;;16.82;69.28
70133;BME280;57495;49.922;7.966;2023-07-13T02:51:37;99943.19;;;16.77;69.77
70133;BME280;57495;49.922;7.966;2023-07-13T02:53:39;99945.88;;;16.77;69.45
70133;BME280;57495;49.922;7.966;2023-07-13T02:55:40;99946.84;;;16.85;69.70
70133;BME280;57495;49.922;7.966;2023-07-13T02:57:41;99955.72;;;16.70;70.63
70133;BME280;57495;49.922;7.966;2023-07-13T02:59:43;99947.13;;;16.52;71.13
70133;BME280;57495;49.922;7.966;2023-07-13T03:01:45;99948.91;;;16.59;71.60
70133;BME280;57495;49.922;7.966;2023-07-13T03:03:45;99949.75;;;16.60;71.15
70133;BME280;57495;49.922;7.966;2023-07-13T03:05:46;99946.03;;;16.61;71.46
70133;BME280;57495;49.922;7.966;2023-07-13T03:07:50;99953.50;;;16.36;72.02
70133;BME280;57495;49.922;7.966;2023-07-13T03:09:54;99953.94;;;16.48;72.33
70133;BME280;57495;49.922;7.966;2023-07-13T03:11:55;99953.63;;;16.42;72.27
70133;BME280;57495;49.922;7.966;2023-07-13T03:13:57;99946.34;;;16.28;72.78
70133;BME280;57495;49.922;7.966;2023-07-13T03:16:00;99947.75;;;16.39;72.92
70133;BME280;57495;49.922;7.966;2023-07-13T03:18:02;99945.72;;;16.41;72.65
70133;BME280;57495;49.922;7.966;2023-07-13T03:20:04;99944.66;;;16.27;73.22
70133;BME280;57495;49.922;7.966;2023-07-13T03:22:07;99945.38;;;16.59;71.55
70133;BME280;57495;49.922;7.966;2023-07-13T03:24:08;99946.59;;;16.18;73.31
70133;BME280;57495;49.922;7.966;2023-07-13T03:26:15;99959.28;;;16.33;73.47
70133;BME280;57495;49.922;7.966;2023-07-13T03:28:17;99951.88;;;16.50;72.95
70133;BME280;57495;49.922;7.966;2023-07-13T03:30:18;99958.19;;;16.42;73.31
70133;BME280;57495;49.922;7.966;2023-07-13T03:32:21;99961.91;;;16.41;73.79
70133;BME280;57495;49.922;7.966;2023-07-13T03:34:23;99966.69;;;16.16;73.91
70133;BME280;57495;49.922;7.966;2023-07-13T03:36:27;99966.00;;;16.37;73.21
70133;BME280;57495;49.922;7.966;2023-07-13T03:38:28;99962.66;;;16.12;75.01
70133;BME280;57495;49.922;7.966;2023-07-13T03:40:29;99969.38;;;16.16;74.37
70133;BME280;57495;49.922;7.966;2023-07-13T03:42:30;99971.94;;;16.32;74.22
70133;BME280;57495;49.922;7.966;2023-07-13T03:44:32;99977.03;;;16.04;75.15
70133;BME280;57495;49.922;7.966;2023-07-13T03:46:33;99982.44;;;15.73;76.83
70133;BME280;57495;49.922;7.966;2023-07-13T03:48:35;99971.41;;;16.14;76.35
70133;BME280;57495;49.922;7.966;2023-07-13T03:50:37;99986.16;;;16.03;76.37
70133;BME280;57495;49.922;7.966;2023-07-13T03:52:38;99992.44;;;15.64;77.98
70133;BME280;57495;49.922;7.966;2023-07-13T03:54:39;99996.31;;;16.01;76.54
70133;BME280;57495;49.922;7.966;2023-07-13T03:56:41;99991.09;;;15.99;76.47
70133;BME280;57495;49.922;7.966;2023-07-13T03:58:43;99986.38;;;15.93;76.92
70133;BME280;57495;49.922;7.966;2023-07-13T04:00:44;99988.31;;;16.08;76.13
70133;BME280;57495;49.922;7.966;2023-07-13T04:02:45;99992.06;;;16.07;76.43
70133;BME280;57495;49.922;7.966;2023-07-13T04:04:51;99993.47;;;16.17;76.39
70133;BME280;57495;49.922;7.966;2023-07-13T04:06:53;100000.97;;;16.07;76.07
70133;BME280;57495;49.922;7.966;2023-07-13T04:08:56;99998.38;;;16.14;74.65
70133;BME280;57495;49.922;7.966;2023-07-13T04:10:59;99998.25;;;16.30;74.38
70133;BME280;57495;49.922;7.966;2023-07-13T04:13:00;99999.75;;;16.10;73.96
70133;BME280;57495;49.922;7.966;2023-07-13T04:15:01;99997.19;;;16.16;73.89
70133;BME280;57495;49.922;7.966;2023-07-13T04:17:02;99997.09;;;16.33;74.73
70133;BME280;57495;49.922;7.966;2023-07-13T04:19:04;99999.47;;;16.28;75.34
70133;BME280;57495;49.922;7.966;2023-07-13T04:21:07;99999.13;;;16.31;75.03
70133;BME280;57495;49.922;7.966;2023-07-13T04:23:08;99993.69;;;16.54;74.19
70133;BME280;57495;49.922;7.966;2023-07-13T04:25:10;99992.72;;;16.47;74.02
70133;BME280;57495;49.922;7.966;2023-07-13T04:27:11;99999.03;;;16.39;73.98
70133;BME280;57495;49.922;7.966;2023-07-13T04:29:13;99995.59;;;16.45;74.32
70133;BME280;57495;49.922;7.966;2023-07-13T04:31:15;99989.16;;;16.69;74.38
70133;BME280;57495;49.922;7.966;2023-07-13T04:33:17;99991.44;;;16.80;74.46
70133;BME280;57495;49.922;7.966;2023-07-13T04:35:18;99992.44;;;16.79;74.75
70133;BME280;57495;49.922;7.966;2023-07-13T04:37:21;99987.03;;;16.79;74.00
70133;BME280;57495;49.922;7.966;2023-07-13T04:39:23;99989.53;;;16.66;73.78
70133;BME280;57495;49.922;7.966;2023-07-13T04:41:24;99995.94;;;16.65;74.22
70133;BME280;57495;49.922;7.966;2023-07-13T04:43:27;99986.31;;;16.86;73.58
70133;BME280;57495;49.922;7.966;2023-07-13T04:45:29;99987.41;;;16.76;73.57
70133;BME280;57495;49.922;7.966;2023-07-13T04:47:31;99988.88;;;16.64;73.89
70133;BME280;57495;49.922;7.966;2023-07-13T04:49:31;99984.94;;;16.52;74.43
70133;BME280;57495;49.922;7.966;2023-07-13T04:51:32;99991.94;;;16.61;74.71
70133;BME280;57495;49.922;7.966;2023-07-13T04:53:35;99991.56;;;16.49;74.51
70133;BME280;57495;49.922;7.966;2023-07-13T04:55:37;99993.34;;;16.34;75.23
70133;BME280;57495;49.922;7.966;2023-07-13T04:57:39;99983.63;;;16.48;74.58
70133;BME280;57495;49.922;7.966;2023-07-13T04:59:40;99994.72;;;16.53;74.49
70133;BME280;57495;49.922;7.966;2023-07-13T05:01:41;99993.06;;;16.67;73.34
70133;BME280;57495;49.922;7.966;2023-07-13T05:03:43;99995.94;;;16.65;73.83
70133;BME280;57495;49.922;7.966;2023-07-13T05:05:54;99997.25;;;16.69;73.85
70133;BME280;57495;49.922;7.966;2023-07-13T05:07:56;99996.47;;;16.84;73.75
70133;BME280;57495;49.922;7.966;2023-07-13T05:09:59;99996.53;;;16.75;73.91
70133;BME280;57495;49.922;7.966;2023-07-13T05:12:00;99998.59;;;16.73;73.99
70133;BME280;57495;49.922;7.966;2023-07-13T05:14:02;99997.31;;;16.84;73.98
70133;BME280;57495;49.922;7.966;2023-07-13T05:16:05;99997.50;;;16.83;74.23
70133;BME280;57495;49.922;7.966;2023-07-13T05:18:07;100004.00;;;16.73;74.98
70133;BME280;57495;49.922;7.966;2023-07-13T05:20:09;100003.06;;;16.81;74.58
70133;BME280;57495;49.922;7.966;2023-07-13T05:22:10;100006.38;;;16.68;75.41
70133;BME280;57495;49.922;7.966;2023-07-13T05:24:12;100009.16;;;16.60;75.56
70133;BME280;57495;49.922;7.966;2023-07-13T05:26:14;100008.22;;;16.53;78.09
70133;BME280;57495;49.922;7.966;2023-07-13T05:28:16;100013.72;;;16.59;78.92
70133;BME280;57495;49.922;7.966;2023-07-13T05:30:16;100014.31;;;16.47;78.52
70133;BME280;57495;49.922;7.966;2023-07-13T05:32:18;100020.91;;;16.67;77.13
70133;BME280;57495;49.922;7.966;2023-07-13T05:34:19;100022.94;;;16.65;76.79
70133;BME280;57495;49.922;7.966;2023-07-13T05:36:20;100019.72;;;16.70;76.45
70133;BME280;57495;49.922;7.966;2023-07-13T05:38:21;100016.03;;;16.86;74.90
70133;BME280;57495;49.922;7.966;2023-07-13T05:40:23;100017.00;;;17.08;75.49
70133;BME280;57495;49.922;7.966;2023-07-13T05:42:25;100019.50;;;17.09;75.90
70133;BME280;57495;49.922;7.966;2023-07-13T05:44:27;100013.00;;;17.18;74.75
70133;BME280;57495;49.922;7.966;2023-07-13T05:46:28;100019.69;;;17.08;74.76
70133;BME280;57495;49.922;7.966;2023-07-13T05:48:29;100018.41;;;17.18;74.41
70133;BME280;57495;49.922;7.966;2023-07-13T05:50:30;100024.47;;;17.20;73.68
70133;BME280;57495;49.922;7.966;2023-07-13T05:52:32;100027.63;;;17.39;73.64
70133;BME280;57495;49.922;7.966;2023-07-13T05:54:33;100022.78;;;17.19;73.91
70133;BME280;57495;49.922;7.966;2023-07-13T05:56:34;100023.25;;;17.38;74.34
70133;BME280;57495;49.922;7.966;2023-07-13T05:58:37;100024.38;;;17.58;74.27
70133;BME280;57495;49.922;7.966;2023-07-13T06:00:39;100025.75;;;17.54;72.92
70133;BME280;57495;49.922;7.966;2023-07-13T06:02:40;100027.88;;;17.74;72.86
70133;BME280;57495;49.922;7.966;2023-07-13T06:04:42;100026.75;;;17.83;71.77
70133;BME280;57495;49.922;7.966;2023-07-13T06:06:43;100030.00;;;17.78;71.33
70133;BME280;57495;49.922;7.966;2023-07-13T06:08:45;100022.91;;;17.92;69.73
70133;BME280;57495;49.922;7.966;2023-07-13T06:10:46;100033.25;;;18.04;70.40
70133;BME280;57495;49.922;7.966;2023-07-13T06:12:47;100025.03;;;18.12;71.12
70133;BME280;57495;49.922;7.966;2023-07-13T06:14:50;100032.22;;;18.26;69.15
70133;BME280;57495;49.922;7.966;2023-07-13T06:16:51;100031.53;;;18.39;69.55
70133;BME280;57495;49.922;7.966;2023-07-13T06:18:53;100029.63;;;18.61;69.60
70133;BME280;57495;49.922;7.966;2023-07-13T06:20:54;100023.19;;;18.84;67.24
70133;BME280;57495;49.922;7.966;2023-07-13T06:22:55;100022.13;;;19.13;66.96
70133;BME280;57495;49.922;7.966;2023-07-13T06:24:57;100034.38;;;19.37;66.59
70133;BME280;57495;49.922;7.966;2023-07-13T06:26:58;100026.88;;;19.39;66.64
70133;BME280;57495;49.922;7.966;2023-07-13T06:29:00;100028.56;;;19.40;65.62
70133;BME280;57495;49.922;7.966;2023-07-13T06:31:05;100024.16;;;19.39;64.71
70133;BME280;57495;49.922;7.966;2023-07-13T06:33:06;100034.81;;;19.34;63.36
70133;BME280;57495;49.922;7.966;2023-07-13T06:35:08;100032.41;;;19.59;63.07
70133;BME280;57495;49.922;7.966;2023-07-13T06:37:12;100033.41;;;19.86;59.60
70133;BME280;57495;49.922;7.966;2023-07-13T06:39:14;100032.78;;;19.84;56.96
70133;BME280;57495;49.922;7.966;2023-07-13T06:41:15;100035.34;;;20.13;56.35
70133;BME280;57495;49.922;7.966;2023-07-13T06:43:16;100040.41;;;20.36;56.09
70133;BME280;57495;49.922;7.966;2023-07-13T06:45:18;100040.84;;;20.33;55.21
70133;BME280;57495;49.922;7.966;2023-07-13T06:47:21;100039.59;;;20.42;56.00
70133;BME280;57495;49.922;7.966;2023-07-13T06:49:22;100042.13;;;20.43;54.79
70133;BME280;57495;49.922;7.966;2023-07-13T06:51:23;100040.69;;;20.81;54.32
70133;BME280;57495;49.922;7.966;2023-07-13T06:53:26;100038.19;;;20.99;53.11
70133;BME280;57495;49.922;7.966;2023-07-13T06:55:27;100036.06;;;21.01;51.95
70133;BME280;57495;49.922;7.966;2023-07-13T06:57:28;100039.41;;;21.17;51.42
70133;BME280;57495;49.922;7.966;2023-07-13T06:59:30;100034.34;;;21.34;52.25
70133;BME280;57495;49.922;7.966;2023-07-13T07:01:31;100035.81;;;21.50;51.56
70133;BME280;57495;49.922;7.966;2023-07-13T07:03:34;100033.50;;;21.40;50.06
70133;BME280;57495;49.922;7.966;2023-07-13T07:05:35;100038.72;;;21.41;50.94
70133;BME280;57495;49.922;7.966;2023-07-13T07:07:37;100036.38;;;21.65;50.57
70133;BME280;57495;49.922;7.966;2023-07-13T07:09:39;100032.56;;;21.73;50.59
70133;BME280;57495;49.922;7.966;2023-07-13T07:11:40;100035.03;;;21.88;49.55
70133;BME280;57495;49.922;7.966;2023-07-13T07:13:42;100043.44;;;21.79;49.39
70133;BME280;57495;49.922;7.966;2023-07-13T07:15:43;100045.06;;;21.94;49.36
70133;BME280;57495;49.922;7.966;2023-07-13T07:17:45;100036.16;;;22.12;48.71
70133;BME280;57495;49.922;7.966;2023-07-13T07:19:48;100045.56;;;22.16;48.21
70133;BME280;57495;49.922;7.966;2023-07-13T07:21:49;100040.88;;;22.30;48.78
70133;BME280;57495;49.922;7.966;2023-07-13T07:23:51;100039.06;;;22.17;49.18
70133;BME280;57495;49.922;7.966;2023-07-13T07:25:53;100041.09;;;22.28;50.21
70133;BME280;57495;49.922;7.966;2023-07-13T07:27:54;100046.81;;;22.13;49.37
70133;BME280;57495;49.922;7.966;2023-07-13T07:29:55;100045.56;;;21.71;49.25
70133;BME280;57495;49.922;7.966;2023-07-13T07:31:58;100046.25;;;22.05;49.40
70133;BME280;57495;49.922;7.966;2023-07-13T07:34:00;100052.84;;;22.22;47.88
70133;BME280;57495;49.922;7.966;2023-07-13T07:36:04;100053.06;;;22.59;48.84
70133;BME280;57495;49.922;7.966;2023-07-13T07:38:06;100046.84;;;22.77;48.11
70133;BME280;57495;49.922;7.966;2023-07-13T07:40:09;100058.69;;;22.89;46.62
70133;BME280;57495;49.922;7.966;2023-07-13T07:42:11;100053.19;;;22.96;47.36
70133;BME280;57495;49.922;7.966;2023-07-13T07:44:12;100057.75;;;23.02;46.10
70133;BME280;57495;49.922;7.966;2023-07-13T07:46:14;100047.84;;;22.26;47.25
70133;BME280;57495;49.922;7.966;2023-07-13T07:48:15;100049.25;;;22.35;47.98
70133;BME280;57495;49.922;7.966;2023-07-13T07:50:17;100042.00;;;22.79;47.10
70133;BME280;57495;49.922;7.966;2023-07-13T07:52:21;100056.44;;;22.86;47.13
70133;BME280;57495;49.922;7.966;2023-07-13T07:54:23;100059.66;;;22.76;45.97
70133;BME280;57495;49.922;7.966;2023-07-13T07:56:24;100050.69;;;22.94;46.03
70133;BME280;57495;49.922;7.966;2023-07-13T07:58:25;100057.50;;;23.10;44.88
70133;BME280;57495;49.922;7.966;2023-07-13T08:00:27;100055.66;;;23.04;46.09
70133;BME280;57495;49.922;7.966;2023-07-13T08:02:30;100058.50;;;23.16;45.02
70133;BME280;57495;49.922;7.966;2023-07-13T08:04:32;100059.47;;;22.96;45.10
70133;BME280;57495;49.922;7.966;2023-07-13T08:06:33;100054.88;;;23.41;44.46
70133;BME280;57495;49.922;7.966;2023-07-13T08:08:36;100060.75;;;23.81;44.40
70133;BME280;57495;49.922;7.966;2023-07-13T08:10:38;100053.72;;;24.04;43.55
70133;BME280;57495;49.922;7.966;2023-07-13T08:12:40;100050.63;;;23.45;42.73
70133;BME280;57495;49.922;7.966;2023-07-13T08:14:41;100057.78;;;23.64;43.93
70133;BME280;57495;49.922;7.966;2023-07-13T08:16:43;100049.75;;;23.88;42.93
70133;BME280;57495;49.922;7.966;2023-07-13T08:18:43;100054.13;;;23.70;42.98
70133;BME280;57495;49.922;7.966;2023-07-13T08:20:44;100044.28;;;23.88;43.52
70133;BME280;57495;49.922;7.966;2023-07-13T08:22:46;100055.28;;;23.63;42.84
70133;BME280;57495;49.922;7.966;2023-07-13T08:24:48;100049.66;;;23.58;44.17
70133;BME280;57495;49.922;7.966;2023-07-13T08:26:55;100057.16;;;23.44;43.42
70133;BME280;57495;49.922;7.966;2023-07-13T08:28:56;100062.47;;;23.39;42.50
70133;BME280;57495;49.922;7.966;2023-07-13T08:31:00;100067.47;;;23.23;43.45
70133;BME280;57495;49.922;7.966;2023-07-13T08:33:02;100057.94;;;22.82;41.35
70133;BME280;57495;49.922;7.966;2023-07-13T08:35:04;100059.56;;;23.33;43.00
70133;BME280;57495;49.922;7.966;2023-07-13T08:37:06;100059.75;;;23.57;41.37
70133;BME280;57495;49.922;7.966;2023-07-13T08:39:07;100061.09;;;23.29;42.02
70133;BME280;57495;49.922;7.966;2023-07-13T08:41:14;100049.41;;;23.78;41.26
70133;BME280;57495;49.922;7.966;2023-07-13T08:43:18;100060.28;;;23.47;41.53
70133;BME280;57495;49.922;7.966;2023-07-13T08:45:23;100062.81;;;23.86;41.15
70133;BME280;57495;49.922;7.966;2023-07-13T08:47:28;100053.72;;;24.04;41.25
70133;BME280;57495;49.922;7.966;2023-07-13T08:49:33;100045.44;;;24.41;40.53
70133;BME280;57495;49.922;7.966;2023-07-13T08:51:40;100052.91;;;24.64;39.59
70133;BME280;57495;49.922;7.966;2023-07-13T08:53:46;100047.72;;;24.86;39.72
70133;BME280;57495;49.922;7.966;2023-07-13T08:55:53;100043.78;;;24.94;40.15
70133;BME280;57495;49.922;7.966;2023-07-13T08:58:05;100043.44;;;25.14;39.78
70133;BME280;57495;49.922;7.966;2023-07-13T09:00:12;100043.53;;;25.54;39.39
70133;BME280;57495;49.922;7.966;2023-07-13T09:02:22;100041.47;;;24.67;39.94
70133;BME280;57495;49.922;7.966;2023-07-13T09:04:28;100041.75;;;24.77;39.25
70133;BME280;57495;49.922;7.966;2023-07-13T09:06:36;100041.38;;;24.85;40.29
70133;BME280;57495;49.922;7.966;2023-07-13T09:08:52;100045.06;;;24.79;40.42
70133;BME280;57495;49.922;7.966;2023-07-13T09:11:02;100038.31;;;25.05;40.04
70133;BME280;57495;49.922;7.966;2023-07-13T09:13:18;100038.53;;;24.80;39.02
70133;BME280;57495;49.922;7.966;2023-07-13T09:15:27;100045.56;;;24.46;39.66
70133;BME280;57495;49.922;7.966;2023-07-13T09:17:35;100034.72;;;24.69;39.69
70133;BME280;57495;49.922;7.966;2023-07-13T09:19:37;100035.44;;;24.77;38.96
70133;BME280;57495;49.922;7.966;2023-07-13T09:21:42;100036.66;;;24.08;39.73
70133;BME280;57495;49.922;7.966;2023-07-13T09:23:45;100038.94;;;23.93;40.21
70133;BME280;57495;49.922;7.966;2023-07-13T09:25:48;100038.59;;;24.20;39.77
70133;BME280;57495;49.922;7.966;2023-07-13T09:27:57;100043.97;;;24.68;40.41
70133;BME280;57495;49.922;7.966;2023-07-13T09:30:17;100044.47;;;24.05;39.50
70133;BME280;57495;49.922;7.966;2023-07-13T09:32:24;100047.03;;;23.88;39.93
70133;BME280;57495;49.922;7.966;2023-07-13T09:34:27;100037.03;;;24.54;39.14
70133;BME280;57495;49.922;7.966;2023-07-13T09:36:32;100035.22;;;24.36;39.62
70133;BME280;57495;49.922;7.966;2023-07-13T09:38:35;100038.72;;;23.95;39.36
70133;BME280;57495;49.922;7.966;2023-07-13T09:40:42;100039.94;;;23.99;40.64
70133;BME280;57495;49.922;7.966;2023-07-13T09:42:46;100035.91;;;24.62;40.02
70133;BME280;57495;49.922;7.966;2023-07-13T09:44:53;100035.94;;;24.43;37.67
70133;BME280;57495;49.922;7.966;2023-07-13T09:46:57;100028.41;;;24.93;39.45
70133;BME280;57495;49.922;7.966;2023-07-13T09:48:58;100036.06;;;24.48;38.81
70133;BME280;57495;49.922;7.966;2023-07-13T09:51:09;100025.81;;;25.45;38.55
70133;BME280;57495;49.922;7.966;2023-07-13T09:53:15;100033.78;;;24.87;37.98
70133;BME280;57495;49.922;7.966;2023-07-13T09:55:24;100028.25;;;25.70;37.42
70133;BME280;57495;49.922;7.966;2023-07-13T09:57:27;100030.81;;;25.24;37.43
70133;BME280;57495;49.922;7.966;2023-07-13T09:59:32;100043.78;;;25.17;36.99
70133;BME280;57495;49.922;7.966;2023-07-13T10:01:35;100034.22;;;24.61;38.05
70133;BME280;57495;49.922;7.966;2023-07-13T10:03:37;100020.47;;;25.79;38.48
70133;BME280;57495;49.922;7.966;2023-07-13T10:05:41;100033.25;;;23.95;38.84
70133;BME280;57495;49.922;7.966;2023-07-13T10:07:44;100043.38;;;23.57;39.77
70133;BME280;57495;49.922;7.966;2023-07-13T10:09:46;100036.09;;;23.32;40.15
70133;BME280;57495;49.922;7.966;2023-07-13T10:11:50;100042.69;;;23.43;40.16
70133;BME280;57495;49.922;7.966;2023-07-13T10:13:53;100047.91;;;23.63;39.48
70133;BME280;57495;49.922;7.966;2023-07-13T10:15:57;100045.94;;;23.52;40.81
70133;BME280;57495;49.922;7.966;2023-07-13T10:17:59;100045.66;;;23.60;41.45
70133;BME280;57495;49.922;7.966;2023-07-13T10:20:05;100038.34;;;23.72;40.42
70133;BME280;57495;49.922;7.966;2023-07-13T10:22:18;100033.66;;;23.80;40.11
70133;BME280;57495;49.922;7.966;2023-07-13T10:24:25;100035.75;;;23.96;41.22
70133;BME280;57495;49.922;7.966;2023-07-13T10:26:29;100026.50;;;23.97;40.14
70133;BME280;57495;49.922;7.966;2023-07-13T10:28:35;100038.66;;;24.01;40.35
70133;BME280;57495;49.922;7.966;2023-07-13T10:30:40;100034.59;;;24.04;40.35
70133;BME280;57495;49.922;7.966;2023-07-13T10:32:44;100030.44;;;24.85;40.66
70133;BME280;57495;49.922;7.966;2023-07-13T10:35:07;100036.94;;;24.61;38.95
70133;BME280;57495;49.922;7.966;2023-07-13T10:37:16;100040.34;;;25.34;38.09
70133;BME280;57495;49.922;7.966;2023-07-13T10:39:23;100027.97;;;24.96;37.84
70133;BME280;57495;49.922;7.966;2023-07-13T10:41:28;100031.19;;;25.04;37.71
70133;BME280;57495;49.922;7.966;2023-07-13T10:43:33;100031.75;;;24.71;38.35
70133;BME280;57495;49.922;7.966;2023-07-13T10:45:37;100035.88;;;24.20;37.26